Terminal Aerodrome Forecast
Issued by NWS Newport/Morehead City, NC

Home | Current Version | Previous Version | Text Only | Print | Product List | Glossary On
Versions: 1 2 3 4 5 6 7 8 9 10 11 12 13 14 15 16 17 18 19 20 21 22
000
FTUS42 KMHX 302339
TAFEWN
TAF
KEWN 302339Z 0100/0124 03006KT P6SM VCSH BKN025
     FM010700 VRB03KT 4SM BR VCSH OVC007
     FM011300 35005KT 5SM -RA SCT007 OVC015
     FM011700 36013G20KT P6SM VCSH OVC020=

USA.gov is the U.S. government's official web portal to all federal, state and local government web resources and services.